Time;durP1;ratioP1;P1;durP2;ratioP2;P2;SDS_P1;SDS_P2;PMS_P1;PMS_P2;Temp;Humidity;BMP_temperature;BMP_pressure;BME280_temperature;BME280_humidity;BME280_pressure;Samples;Min_cycle;Max_cycle;Signal;HPM_P1;HPM_P2
2022/01/05 00:00:17;;;;;;;14.95;2.08;;;5.70;99.90;;;;;;5032295;28;20136;-71
2022/01/05 00:02:42;;;;;;;13.93;3.67;;;5.70;99.90;;;;;;5033821;28;20029;-68
2022/01/05 00:05:09;;;;;;;8.00;1.38;;;5.70;99.90;;;;;;5033587;28;20083;-69
2022/01/05 00:07:35;;;;;;;16.10;2.10;;;5.70;99.90;;;;;;5033265;28;20021;-68
2022/01/05 00:10:01;;;;;;;13.50;2.33;;;5.80;99.90;;;;;;5032130;28;20134;-71
2022/01/05 00:12:27;;;;;;;16.77;2.80;;;5.80;99.90;;;;;;5033467;28;20032;-69
2022/01/05 00:14:52;;;;;;;12.30;2.17;;;5.90;99.90;;;;;;5030793;28;20042;-70
2022/01/05 00:17:18;;;;;;;12.18;1.70;;;5.90;99.90;;;;;;5032875;28;20071;-69
2022/01/05 00:19:44;;;;;;;13.10;2.13;;;5.90;99.90;;;;;;5033040;28;20033;-70
2022/01/05 00:22:10;;;;;;;13.55;2.15;;;5.80;99.90;;;;;;5031655;28;20455;-71
2022/01/05 00:24:36;;;;;;;13.57;2.10;;;5.90;99.90;;;;;;5032035;28;20520;-68
2022/01/05 00:27:04;;;;;;;9.05;1.65;;;5.80;99.90;;;;;;5031814;28;20026;-69
2022/01/05 00:29:31;;;;;;;13.93;2.15;;;5.80;99.90;;;;;;5033289;28;20072;-69
2022/01/05 00:31:56;;;;;;;9.30;1.95;;;5.80;99.90;;;;;;5032256;28;20143;-68
2022/01/05 00:34:22;;;;;;;18.33;2.33;;;5.80;99.90;;;;;;5032795;28;20108;-68
2022/01/05 00:36:47;;;;;;;7.00;1.75;;;5.70;99.90;;;;;;5031482;28;20123;-69
2022/01/05 00:39:13;;;;;;;13.50;1.80;;;5.70;99.90;;;;;;5032263;28;20367;-70
2022/01/05 00:41:38;;;;;;;10.77;2.00;;;5.70;99.90;;;;;;5031307;28;20053;-70
2022/01/05 00:44:04;;;;;;;12.32;2.28;;;5.70;99.90;;;;;;5031342;28;20025;-69
2022/01/05 00:46:30;;;;;;;8.00;1.73;;;5.70;99.90;;;;;;5031806;28;20032;-69
2022/01/05 00:48:56;;;;;;;14.57;3.33;;;5.70;99.90;;;;;;5033034;28;20029;-70
2022/01/05 00:51:21;;;;;;;7.63;1.85;;;5.70;99.90;;;;;;5031146;28;20041;-70
2022/01/05 00:53:47;;;;;;;13.45;2.38;;;5.70;99.90;;;;;;5032832;28;20125;-70
2022/01/05 00:56:13;;;;;;;12.15;2.05;;;5.70;99.90;;;;;;5032848;28;20033;-69
2022/01/05 00:58:38;;;;;;;11.45;1.73;;;5.70;99.90;;;;;;5032970;28;20025;-70
2022/01/05 01:01:04;;;;;;;14.40;1.75;;;5.70;99.90;;;;;;5031535;28;20026;-69
2022/01/05 01:03:30;;;;;;;11.73;2.75;;;5.70;99.90;;;;;;5032577;28;20035;-68
2022/01/05 01:05:56;;;;;;;11.65;2.30;;;5.70;99.90;;;;;;5032133;28;20036;-69
2022/01/05 01:08:22;;;;;;;18.33;2.38;;;5.70;99.90;;;;;;5031837;28;20053;-72
2022/01/05 01:10:49;;;;;;;11.18;2.53;;;5.70;99.90;;;;;;5032451;28;20080;-70
2022/01/05 01:13:17;;;;;;;12.98;2.65;;;5.80;99.90;;;;;;5031789;28;20129;-70
2022/01/05 01:15:47;;;;;;;22.95;2.45;;;5.90;99.90;;;;;;5031697;28;20022;-70
2022/01/05 01:18:14;;;;;;;19.48;2.55;;;5.90;99.90;;;;;;5031932;28;20639;-68
2022/01/05 01:20:39;;;;;;;11.75;2.35;;;5.90;99.90;;;;;;5031743;28;20026;-70
2022/01/05 01:23:05;;;;;;;13.73;2.42;;;6.00;99.90;;;;;;5031498;28;20505;-69
2022/01/05 01:25:31;;;;;;;20.88;3.22;;;6.00;99.90;;;;;;5031971;28;20026;-68
2022/01/05 01:27:56;;;;;;;20.35;3.35;;;6.00;99.90;;;;;;5031674;28;20028;-68
2022/01/05 01:30:22;;;;;;;16.92;2.47;;;6.00;99.90;;;;;;5031605;28;20033;-70
2022/01/05 01:32:47;;;;;;;8.77;2.20;;;6.00;99.90;;;;;;5032044;28;20060;-70
2022/01/05 01:35:13;;;;;;;14.80;2.75;;;6.10;99.90;;;;;;5031959;28;21457;-68
2022/01/05 01:37:39;;;;;;;18.65;2.70;;;6.10;99.90;;;;;;5031683;28;20036;-70
2022/01/05 01:40:07;;;;;;;14.32;2.17;;;6.10;99.90;;;;;;5030777;28;20029;-70
2022/01/05 01:42:32;;;;;;;15.95;2.78;;;6.10;99.90;;;;;;5030533;28;20673;-69
2022/01/05 01:44:58;;;;;;;10.57;2.20;;;6.10;99.90;;;;;;5032010;28;20124;-71
2022/01/05 01:47:24;;;;;;;13.55;2.78;;;6.10;99.90;;;;;;5030293;28;20494;-70
2022/01/05 01:49:49;;;;;;;11.32;3.05;;;6.10;99.90;;;;;;5031959;28;20125;-69
2022/01/05 01:52:15;;;;;;;18.48;2.40;;;6.20;99.90;;;;;;5030627;28;20061;-71
2022/01/05 01:54:41;;;;;;;13.18;2.05;;;6.20;99.90;;;;;;5032056;28;20383;-68
2022/01/05 01:57:07;;;;;;;11.48;1.85;;;6.20;99.90;;;;;;5030526;28;20029;-71
2022/01/05 01:59:33;;;;;;;20.25;2.85;;;6.20;99.90;;;;;;5030655;28;20030;-71
2022/01/05 02:02:00;;;;;;;10.50;1.90;;;6.20;99.90;;;;;;5030359;28;20033;-70
2022/01/05 02:04:25;;;;;;;16.23;2.17;;;6.20;99.90;;;;;;5032402;28;20022;-70
2022/01/05 02:06:52;;;;;;;12.00;2.05;;;6.20;99.90;;;;;;5031781;28;20076;-70
2022/01/05 02:09:18;;;;;;;13.90;2.47;;;6.20;99.90;;;;;;5031757;28;20463;-70
2022/01/05 02:11:43;;;;;;;8.82;1.95;;;6.10;99.90;;;;;;5032000;28;20056;-70
2022/01/05 02:14:09;;;;;;;10.80;2.28;;;6.10;99.90;;;;;;5031085;28;20045;-70
2022/01/05 02:16:40;;;;;;;16.00;3.00;;;6.20;99.90;;;;;;5031705;28;20091;-70
2022/01/05 02:19:06;;;;;;;14.73;2.22;;;6.20;99.90;;;;;;5029078;28;20022;-69
2022/01/05 02:21:34;;;;;;;16.23;2.83;;;6.20;99.90;;;;;;5031221;28;20091;-69
2022/01/05 02:24:01;;;;;;;19.50;2.33;;;6.10;99.90;;;;;;5031464;28;20025;-70
2022/01/05 02:26:26;;;;;;;11.63;2.55;;;6.10;99.90;;;;;;5031753;28;20049;-70
2022/01/05 02:28:52;;;;;;;17.33;2.20;;;6.00;99.90;;;;;;5031400;28;20066;-69
2022/01/05 02:31:18;;;;;;;19.30;5.30;;;6.00;99.90;;;;;;5029677;28;20041;-70
2022/01/05 02:33:45;;;;;;;15.00;3.03;;;6.00;99.90;;;;;;5031250;28;20531;-69
2022/01/05 02:36:14;;;;;;;17.30;2.65;;;6.00;99.90;;;;;;5030056;28;20046;-71
2022/01/05 02:38:39;;;;;;;14.80;2.67;;;6.00;99.90;;;;;;5033386;28;20533;-70
2022/01/05 02:41:08;;;;;;;16.13;2.25;;;6.00;99.90;;;;;;5035260;28;20053;-71
2022/01/05 02:43:37;;;;;;;14.65;2.05;;;6.00;99.90;;;;;;5035416;28;20022;-68
2022/01/05 02:46:04;;;;;;;12.50;2.70;;;6.00;99.90;;;;;;5035289;28;20033;-68
2022/01/05 02:48:32;;;;;;;13.38;2.15;;;6.00;99.90;;;;;;5034287;28;20394;-70
2022/01/05 02:50:58;;;;;;;15.63;2.20;;;6.00;99.90;;;;;;5033092;28;20056;-70
2022/01/05 02:53:24;;;;;;;14.27;2.55;;;6.00;99.90;;;;;;5034674;28;20037;-70
2022/01/05 02:55:50;;;;;;;14.23;2.22;;;6.00;99.90;;;;;;5032909;28;20032;-69
2022/01/05 02:58:16;;;;;;;18.27;2.47;;;6.10;99.90;;;;;;5034444;28;20021;-70
2022/01/05 03:00:42;;;;;;;12.30;2.50;;;6.10;99.90;;;;;;5033642;28;20033;-70
2022/01/05 03:03:07;;;;;;;11.68;3.00;;;6.20;99.90;;;;;;5034153;28;20068;-69
2022/01/05 03:05:33;;;;;;;14.88;2.25;;;6.30;99.90;;;;;;5033114;28;20037;-70
2022/01/05 03:07:59;;;;;;;11.65;2.00;;;6.40;99.90;;;;;;5033142;28;20056;-68
2022/01/05 03:10:24;;;;;;;16.55;3.05;;;6.40;99.90;;;;;;5032543;28;20041;-70
2022/01/05 03:12:50;;;;;;;11.27;2.45;;;6.40;99.90;;;;;;5033143;28;20026;-69
2022/01/05 03:15:16;;;;;;;10.02;1.95;;;6.50;99.90;;;;;;5033784;28;20412;-69
2022/01/05 03:17:42;;;;;;;11.85;1.90;;;6.50;99.90;;;;;;5033897;28;20479;-69
2022/01/05 03:20:09;;;;;;;17.95;3.00;;;6.50;99.90;;;;;;5033993;28;20037;-70
2022/01/05 03:22:36;;;;;;;12.48;2.28;;;6.50;99.90;;;;;;5032356;28;20505;-69
2022/01/05 03:25:02;;;;;;;8.73;2.80;;;6.50;99.90;;;;;;5034204;28;20035;-70
2022/01/05 03:27:28;;;;;;;12.68;1.88;;;6.50;99.90;;;;;;5033978;28;20471;-69
2022/01/05 03:29:54;;;;;;;14.15;3.40;;;6.50;99.90;;;;;;5034274;28;20371;-71
2022/01/05 03:32:20;;;;;;;14.57;2.20;;;6.50;99.90;;;;;;5034294;28;20522;-70
2022/01/05 03:34:46;;;;;;;20.13;2.45;;;6.40;99.90;;;;;;5034311;28;20136;-70
2022/01/05 03:37:12;;;;;;;12.88;2.00;;;6.40;99.90;;;;;;5034273;28;20071;-71
2022/01/05 03:39:38;;;;;;;11.73;2.28;;;6.40;99.90;;;;;;5033854;28;20437;-69
2022/01/05 03:42:05;;;;;;;17.00;2.45;;;6.40;99.90;;;;;;5033652;28;20048;-70
2022/01/05 03:44:30;;;;;;;18.00;2.95;;;6.40;99.90;;;;;;5033750;28;20414;-68
2022/01/05 03:46:56;;;;;;;13.68;2.70;;;6.40;99.90;;;;;;5033835;28;20025;-71
2022/01/05 03:49:23;;;;;;;16.75;2.58;;;6.40;99.90;;;;;;5033732;28;20034;-69
2022/01/05 03:51:48;;;;;;;15.48;2.30;;;6.40;99.90;;;;;;5033689;28;20036;-70
2022/01/05 03:54:14;;;;;;;14.60;2.45;;;6.50;99.90;;;;;;5032342;28;20446;-71
2022/01/05 03:56:39;;;;;;;21.60;3.25;;;6.50;99.90;;;;;;5032211;28;20030;-70
2022/01/05 03:59:05;;;;;;;24.65;3.63;;;6.50;99.90;;;;;;5033760;28;20117;-70
2022/01/05 04:01:31;;;;;;;17.25;2.65;;;6.50;99.90;;;;;;5032471;28;20486;-69
2022/01/05 04:03:56;;;;;;;18.05;3.15;;;6.60;99.90;;;;;;5032388;28;20028;-70
2022/01/05 04:06:22;;;;;;;15.10;3.40;;;6.60;99.90;;;;;;5033608;28;20026;-68
2022/01/05 04:08:47;;;;;;;16.90;2.88;;;6.60;99.90;;;;;;5033801;28;20037;-69
2022/01/05 04:11:13;;;;;;;16.55;3.00;;;6.60;99.90;;;;;;5033054;28;20693;-69
2022/01/05 04:13:38;;;;;;;14.80;2.33;;;6.60;99.90;;;;;;5033395;28;20099;-70
2022/01/05 04:16:05;;;;;;;19.52;3.35;;;6.60;99.90;;;;;;5032193;28;20463;-70
2022/01/05 04:18:30;;;;;;;21.67;2.85;;;6.60;99.90;;;;;;5033404;28;20471;-69
2022/01/05 04:20:56;;;;;;;12.43;2.50;;;6.60;99.90;;;;;;5033384;28;20029;-69
2022/01/05 04:23:21;;;;;;;20.30;3.50;;;6.60;99.90;;;;;;5033401;28;20454;-70
2022/01/05 04:25:47;;;;;;;20.55;2.85;;;6.60;99.90;;;;;;5032754;28;20029;-69
2022/01/05 04:28:12;;;;;;;18.52;2.65;;;6.50;99.90;;;;;;5033246;28;20033;-69
2022/01/05 04:30:38;;;;;;;13.88;2.50;;;6.50;99.90;;;;;;5033104;28;20047;-69
2022/01/05 04:33:04;;;;;;;15.10;2.58;;;6.50;99.90;;;;;;5032914;28;20029;-70
2022/01/05 04:35:29;;;;;;;17.67;3.63;;;6.40;99.90;;;;;;5031781;28;20060;-69
2022/01/05 04:37:55;;;;;;;18.02;2.90;;;6.40;99.90;;;;;;5033057;28;20045;-69
2022/01/05 04:40:21;;;;;;;15.82;2.83;;;6.40;99.90;;;;;;5032615;28;20068;-69
2022/01/05 04:42:47;;;;;;;12.68;3.20;;;6.30;99.90;;;;;;5033197;28;20132;-70
2022/01/05 04:45:12;;;;;;;16.33;3.13;;;6.30;99.90;;;;;;5031590;28;20032;-68
2022/01/05 04:47:38;;;;;;;13.90;2.50;;;6.40;99.90;;;;;;5032868;28;20075;-70
2022/01/05 04:50:05;;;;;;;13.05;3.00;;;6.40;99.90;;;;;;5032805;28;20368;-69
2022/01/05 04:52:30;;;;;;;26.52;3.70;;;6.30;99.90;;;;;;5032869;28;20096;-70
2022/01/05 04:54:56;;;;;;;16.10;2.85;;;6.40;99.90;;;;;;5031352;28;20076;-71
2022/01/05 04:57:22;;;;;;;17.70;2.92;;;6.30;99.90;;;;;;5032539;28;20060;-69
2022/01/05 04:59:48;;;;;;;17.95;3.17;;;6.40;99.90;;;;;;5032156;28;20087;-70
2022/01/05 05:02:14;;;;;;;21.58;3.38;;;6.40;99.90;;;;;;5031431;28;20021;-70
2022/01/05 05:04:40;;;;;;;19.70;3.63;;;6.50;99.90;;;;;;5032449;28;20387;-70
2022/01/05 05:07:06;;;;;;;15.95;2.40;;;6.50;99.90;;;;;;5032415;28;20033;-71
2022/01/05 05:09:31;;;;;;;18.88;2.85;;;6.50;99.90;;;;;;5032387;28;20156;-68
2022/01/05 05:11:57;;;;;;;18.73;4.93;;;6.50;99.90;;;;;;5032840;28;20489;-70
2022/01/05 05:14:23;;;;;;;18.95;3.40;;;6.50;99.90;;;;;;5032274;28;20053;-69
2022/01/05 05:16:49;;;;;;;20.45;4.13;;;6.50;99.90;;;;;;5032222;28;20029;-70
2022/01/05 05:19:14;;;;;;;14.73;3.45;;;6.50;99.90;;;;;;5032336;28;20022;-69
2022/01/05 05:21:40;;;;;;;12.55;1.95;;;6.60;99.90;;;;;;5032468;28;20117;-70
2022/01/05 05:24:06;;;;;;;11.50;1.92;;;6.70;99.90;;;;;;5032082;28;20108;-70
2022/01/05 05:26:31;;;;;;;16.33;2.72;;;6.70;99.90;;;;;;5032705;28;20466;-69
2022/01/05 05:28:57;;;;;;;11.10;1.83;;;6.80;99.90;;;;;;5032141;28;20029;-70
2022/01/05 05:31:23;;;;;;;15.68;2.33;;;6.80;99.90;;;;;;5032265;28;20057;-70
2022/01/05 05:33:49;;;;;;;14.80;2.47;;;6.80;99.90;;;;;;5032047;28;20036;-71
2022/01/05 05:36:14;;;;;;;17.52;3.08;;;6.80;99.90;;;;;;5032141;28;20029;-70
2022/01/05 05:38:40;;;;;;;21.55;2.42;;;6.80;99.90;;;;;;5032150;28;20033;-71
2022/01/05 05:41:05;;;;;;;14.77;2.72;;;6.80;99.90;;;;;;5032521;28;20032;-71
2022/01/05 05:43:31;;;;;;;16.38;2.30;;;6.80;99.90;;;;;;5032013;28;20042;-70
2022/01/05 05:45:57;;;;;;;13.18;2.90;;;6.80;99.90;;;;;;5032316;28;20034;-71
2022/01/05 05:48:22;;;;;;;16.58;3.30;;;6.70;99.90;;;;;;5030906;28;20026;-69
2022/01/05 05:50:48;;;;;;;17.38;2.92;;;6.70;99.90;;;;;;5032315;28;20502;-72
2022/01/05 05:53:14;;;;;;;16.70;2.38;;;6.70;99.90;;;;;;5030427;28;20490;-70
2022/01/05 05:55:39;;;;;;;18.67;3.38;;;6.70;99.90;;;;;;5031876;28;20041;-71
2022/01/05 05:58:05;;;;;;;13.90;3.30;;;6.70;99.90;;;;;;5032152;28;20495;-69
2022/01/05 06:00:31;;;;;;;8.65;2.55;;;6.70;99.90;;;;;;5032063;28;20022;-70
2022/01/05 06:02:57;;;;;;;22.52;2.97;;;6.60;99.90;;;;;;5032323;28;20056;-71
2022/01/05 06:05:23;;;;;;;18.52;2.50;;;6.60;99.90;;;;;;5032298;28;20028;-71
2022/01/05 06:07:48;;;;;;;17.92;2.65;;;6.50;99.90;;;;;;5032122;28;20029;-70
2022/01/05 06:10:14;;;;;;;16.40;2.95;;;6.50;99.90;;;;;;5033914;28;20494;-72
2022/01/05 06:12:40;;;;;;;23.73;3.45;;;6.50;99.90;;;;;;5035938;28;20071;-70
2022/01/05 06:15:06;;;;;;;20.90;3.45;;;6.60;99.90;;;;;;5036024;28;20061;-71
2022/01/05 06:17:31;;;;;;;19.73;2.95;;;6.50;99.90;;;;;;5035725;28;20036;-70
2022/01/05 06:19:57;;;;;;;25.80;3.25;;;6.60;99.90;;;;;;5035555;28;20117;-68
2022/01/05 06:22:23;;;;;;;19.10;3.50;;;6.70;99.90;;;;;;5035462;28;20472;-70
2022/01/05 06:24:49;;;;;;;24.50;3.30;;;6.70;99.90;;;;;;5034459;28;20117;-70
2022/01/05 06:27:15;;;;;;;13.38;2.67;;;6.70;99.90;;;;;;5035794;28;20025;-69
2022/01/05 06:29:40;;;;;;;16.95;3.05;;;6.70;99.90;;;;;;5035674;28;20030;-70
2022/01/05 06:32:06;;;;;;;21.77;3.40;;;6.70;99.90;;;;;;5035484;28;20026;-70
2022/01/05 06:34:32;;;;;;;22.05;3.72;;;6.80;99.90;;;;;;5035503;28;20116;-69
2022/01/05 06:36:58;;;;;;;27.35;3.50;;;6.80;99.90;;;;;;5035182;28;20109;-68
2022/01/05 06:39:23;;;;;;;22.38;3.67;;;6.80;99.90;;;;;;5035754;28;20038;-70
2022/01/05 06:41:49;;;;;;;22.65;3.55;;;6.80;99.90;;;;;;5035210;28;20029;-70
2022/01/05 06:44:15;;;;;;;25.25;3.47;;;6.90;99.90;;;;;;5035284;28;20030;-69
2022/01/05 06:46:40;;;;;;;19.48;3.88;;;6.90;99.90;;;;;;5035095;28;20068;-69
2022/01/05 06:49:06;;;;;;;25.08;3.67;;;6.90;99.90;;;;;;5034090;28;20075;-70
2022/01/05 06:51:31;;;;;;;14.32;2.85;;;7.00;99.90;;;;;;5033827;28;20410;-70
2022/01/05 06:53:57;;;;;;;19.77;3.50;;;7.10;99.90;;;;;;5035010;28;20534;-69
2022/01/05 06:56:23;;;;;;;23.33;3.72;;;7.10;99.90;;;;;;5035144;28;20425;-68
2022/01/05 06:58:48;;;;;;;23.10;4.78;;;7.00;99.90;;;;;;5035130;28;20029;-71
2022/01/05 07:01:14;;;;;;;22.42;4.55;;;7.00;99.90;;;;;;5033747;28;20033;-69
2022/01/05 07:03:40;;;;;;;24.73;3.15;;;7.00;99.90;;;;;;5035060;28;20426;-70
2022/01/05 07:06:05;;;;;;;14.52;3.40;;;7.00;99.90;;;;;;5033712;28;20026;-69
2022/01/05 07:08:31;;;;;;;23.77;3.03;;;7.00;99.90;;;;;;5034395;28;20032;-72
2022/01/05 07:10:57;;;;;;;12.63;2.25;;;7.00;99.90;;;;;;5033418;28;20040;-71
2022/01/05 07:13:22;;;;;;;15.75;2.85;;;7.00;99.90;;;;;;5034558;28;20172;-73
2022/01/05 07:15:49;;;;;;;22.00;4.95;;;6.90;99.90;;;;;;5034535;28;20030;-72
2022/01/05 07:18:15;;;;;;;22.17;3.15;;;6.90;99.90;;;;;;5034523;28;20506;-70
2022/01/05 07:20:40;;;;;;;19.98;2.67;;;6.90;99.90;;;;;;5034642;28;20152;-70
2022/01/05 07:23:06;;;;;;;18.95;3.22;;;6.90;99.90;;;;;;5034125;28;20490;-72
2022/01/05 07:25:31;;;;;;;19.45;3.08;;;6.90;99.90;;;;;;5034936;28;20025;-70
2022/01/05 07:27:57;;;;;;;18.33;2.75;;;6.90;99.90;;;;;;5034798;28;20072;-70
2022/01/05 07:30:23;;;;;;;19.92;3.30;;;6.90;99.90;;;;;;5034455;28;20084;-72
2022/01/05 07:32:49;;;;;;;20.67;3.08;;;6.90;99.90;;;;;;5033014;28;20562;-72
2022/01/05 07:35:15;;;;;;;19.60;2.47;;;6.90;99.90;;;;;;5034221;28;20549;-70
2022/01/05 07:37:40;;;;;;;15.40;2.80;;;6.90;99.90;;;;;;5032674;28;20037;-72
2022/01/05 07:40:07;;;;;;;23.42;3.33;;;6.90;99.90;;;;;;5034681;28;20029;-71
2022/01/05 07:42:34;;;;;;;17.63;2.75;;;6.90;99.90;;;;;;5034260;28;20033;-69
2022/01/05 07:45:02;;;;;;;21.05;3.22;;;7.00;99.90;;;;;;5034109;28;20121;-69
2022/01/05 07:47:27;;;;;;;20.35;3.67;;;7.00;99.90;;;;;;5032603;28;20452;-70
2022/01/05 07:49:53;;;;;;;26.02;4.80;;;7.00;99.90;;;;;;5033698;28;20065;-69
2022/01/05 07:52:18;;;;;;;21.40;3.60;;;7.10;99.90;;;;;;5032928;28;20091;-70
2022/01/05 07:54:44;;;;;;;24.65;4.00;;;7.10;99.90;;;;;;5034035;28;20430;-68
2022/01/05 07:57:09;;;;;;;20.83;3.83;;;7.10;99.90;;;;;;5033794;28;20029;-69
2022/01/05 07:59:35;;;;;;;23.02;3.67;;;7.10;99.90;;;;;;5032413;28;20537;-69
2022/01/05 08:02:01;;;;;;;26.35;4.45;;;7.20;99.90;;;;;;5032578;28;20061;-70
2022/01/05 08:04:26;;;;;;;21.65;3.63;;;7.20;99.90;;;;;;5033580;28;20033;-68
2022/01/05 08:06:52;;;;;;;21.83;3.67;;;7.20;99.90;;;;;;5033782;28;20631;-69
2022/01/05 08:09:17;;;;;;;21.75;3.85;;;7.20;99.90;;;;;;5033676;28;20080;-70
2022/01/05 08:11:43;;;;;;;29.73;4.00;;;7.30;99.90;;;;;;5033433;28;20041;-70
2022/01/05 08:14:09;;;;;;;20.17;3.38;;;7.40;99.90;;;;;;5032235;28;20503;-70
2022/01/05 08:16:34;;;;;;;20.55;4.40;;;7.40;99.90;;;;;;5033703;28;20179;-69
2022/01/05 08:19:00;;;;;;;29.38;4.13;;;7.50;99.90;;;;;;5033864;28;20033;-69
2022/01/05 08:21:26;;;;;;;20.35;3.03;;;7.50;99.90;;;;;;5033494;28;20029;-71
2022/01/05 08:23:51;;;;;;;19.15;3.67;;;7.50;99.90;;;;;;5033456;28;20025;-70
2022/01/05 08:26:17;;;;;;;20.75;3.10;;;7.50;99.90;;;;;;5031784;28;20021;-70
2022/01/05 08:28:42;;;;;;;23.35;3.67;;;7.50;99.90;;;;;;5033340;28;20021;-69
2022/01/05 08:31:08;;;;;;;19.45;3.72;;;7.50;99.90;;;;;;5032977;28;20037;-69
2022/01/05 08:33:34;;;;;;;13.93;2.70;;;7.50;99.90;;;;;;5030804;28;20025;-71
2022/01/05 08:36:02;;;;;;;34.33;4.38;;;7.50;99.90;;;;;;5032973;28;20419;-72
2022/01/05 08:38:28;;;;;;;18.55;3.53;;;7.50;99.90;;;;;;5033321;28;20017;-73
2022/01/05 08:40:54;;;;;;;28.83;4.35;;;7.50;99.90;;;;;;5033202;28;20057;-72
2022/01/05 08:43:20;;;;;;;14.55;3.33;;;7.40;99.90;;;;;;5033149;28;20431;-71
2022/01/05 08:45:46;;;;;;;23.85;3.67;;;7.40;99.90;;;;;;5031560;28;20048;-72
2022/01/05 08:48:12;;;;;;;22.77;3.42;;;7.30;99.90;;;;;;5031431;28;20078;-72
2022/01/05 08:50:38;;;;;;;21.98;4.03;;;7.30;99.90;;;;;;5031310;28;20037;-71
2022/01/05 08:53:05;;;;;;;27.67;3.95;;;7.30;99.90;;;;;;5032957;28;20861;-72
2022/01/05 08:55:35;;;;;;;30.20;5.30;;;7.30;99.90;;;;;;5032448;28;20029;-69
2022/01/05 08:58:01;;;;;;;17.52;3.15;;;7.30;99.90;;;;;;5032971;28;20021;-70
2022/01/05 09:00:27;;;;;;;32.67;3.90;;;7.40;99.90;;;;;;5033003;28;20033;-71
2022/01/05 09:02:53;;;;;;;20.52;3.75;;;7.40;99.90;;;;;;5032665;28;20026;-69
2022/01/05 09:05:19;;;;;;;28.73;5.20;;;7.50;99.90;;;;;;5033171;28;20045;-69
2022/01/05 09:07:44;;;;;;;24.08;4.95;;;7.60;99.90;;;;;;5032853;28;20033;-68
2022/01/05 09:10:10;;;;;;;17.90;4.40;;;7.60;99.90;;;;;;5032482;28;20029;-69
2022/01/05 09:12:37;;;;;;;25.52;4.28;;;7.70;99.90;;;;;;5032835;28;20069;-71
2022/01/05 09:15:04;;;;;;;16.92;3.80;;;7.80;99.90;;;;;;5032450;28;20052;-71
2022/01/05 09:17:30;;;;;;;21.83;3.17;;;7.90;99.90;;;;;;5028523;28;20029;-70
2022/01/05 09:19:56;;;;;;;19.08;3.30;;;7.80;99.90;;;;;;5016521;28;20044;-68
2022/01/05 09:22:22;;;;;;;19.08;3.15;;;7.80;99.90;;;;;;5030986;28;20025;-70
2022/01/05 09:24:49;;;;;;;19.45;4.90;;;7.90;99.90;;;;;;5032548;28;20040;-70
2022/01/05 09:27:16;;;;;;;14.80;3.30;;;7.90;99.90;;;;;;5032318;28;20060;-71
2022/01/05 09:29:42;;;;;;;17.52;2.63;;;7.90;99.90;;;;;;5030843;28;20064;-71
2022/01/05 09:32:09;;;;;;;20.52;2.65;;;7.90;99.90;;;;;;5030827;28;20057;-70
2022/01/05 09:34:40;;;;;;;18.38;2.80;;;7.90;99.90;;;;;;5031237;28;20072;-70
2022/01/05 09:37:12;;;;;;;15.33;2.53;;;7.90;99.90;;;;;;5031069;28;20056;-69
2022/01/05 09:42:23;;;;;;;20.02;2.95;;;7.90;99.90;;;;;;5014557;28;20037;-69
2022/01/05 09:44:52;;;;;;;21.42;3.67;;;8.00;99.90;;;;;;5012484;28;20441;-70
2022/01/05 09:47:53;;;;;;;15.52;2.90;;;8.00;99.90;;;;;;5015138;28;20100;-69
2022/01/05 09:50:21;;;;;;;28.77;4.70;;;8.10;99.90;;;;;;5015008;28;20041;-70
2022/01/05 09:52:47;;;;;;;21.92;2.78;;;8.20;99.90;;;;;;5016446;28;20036;-69
2022/01/05 09:55:14;;;;;;;17.42;2.95;;;8.20;99.90;;;;;;5015825;28;20398;-70
2022/01/05 09:57:43;;;;;;;22.25;3.60;;;8.30;99.90;;;;;;5015980;28;20029;-69
2022/01/05 10:00:12;;;;;;;21.35;3.30;;;8.40;99.90;;;;;;5016407;28;20124;-69
2022/01/05 10:02:39;;;;;;;23.20;3.88;;;8.50;99.90;;;;;;5014994;28;20385;-69
2022/01/05 10:05:08;;;;;;;17.90;3.15;;;8.50;99.90;;;;;;5016132;28;20033;-70
2022/01/05 10:07:35;;;;;;;13.80;2.75;;;8.50;99.90;;;;;;5016168;28;20021;-68
2022/01/05 10:10:00;;;;;;;18.55;3.33;;;8.60;99.90;;;;;;5014903;28;20537;-70
2022/01/05 10:12:26;;;;;;;21.63;3.35;;;8.50;99.90;;;;;;5015914;28;20037;-70
2022/01/05 10:14:52;;;;;;;23.13;3.72;;;8.50;99.90;;;;;;5015811;28;20471;-67
2022/01/05 10:17:32;;;;;;;30.02;4.63;;;8.50;99.90;;;;;;5014141;28;20403;-69
2022/01/05 10:20:07;;;;;;;22.65;3.42;;;8.50;99.90;;;;;;5015705;28;20037;-68
2022/01/05 10:22:34;;;;;;;19.40;3.30;;;8.50;99.90;;;;;;5015749;28;20026;-70
2022/01/05 10:25:03;;;;;;;22.83;3.88;;;8.40;99.90;;;;;;5015739;28;20034;-69
2022/01/05 10:27:29;;;;;;;21.25;4.38;;;8.40;99.90;;;;;;5015716;28;20387;-70
2022/01/05 10:30:04;;;;;;;24.30;4.43;;;8.50;99.90;;;;;;5014308;28;20026;-69
2022/01/05 10:32:33;;;;;;;24.17;4.22;;;8.50;99.90;;;;;;5014219;28;20069;-69
2022/01/05 10:35:20;;;;;;;19.35;3.50;;;8.50;99.90;;;;;;5015746;28;20022;-69
2022/01/05 10:37:59;;;;;;;21.35;3.75;;;8.50;99.90;;;;;;5014362;28;20035;-71
2022/01/05 10:40:25;;;;;;;25.40;3.38;;;8.40;99.90;;;;;;5015502;28;20036;-70
2022/01/05 10:42:55;;;;;;;17.70;3.28;;;8.40;99.90;;;;;;5015062;28;20034;-69
2022/01/05 10:45:38;;;;;;;18.55;2.85;;;8.40;99.90;;;;;;5014032;28;20125;-73
2022/01/05 10:48:09;;;;;;;22.48;3.00;;;8.40;99.90;;;;;;5015263;28;20041;-71
2022/01/05 10:50:36;;;;;;;23.55;3.15;;;8.40;99.90;;;;;;5014986;28;20045;-70
2022/01/05 10:53:03;;;;;;;18.30;3.15;;;8.40;99.90;;;;;;5015140;28;20022;-71
2022/01/05 10:55:31;;;;;;;24.42;3.42;;;8.40;99.90;;;;;;5014712;28;20026;-70
2022/01/05 10:58:07;;;;;;;21.15;3.33;;;8.50;99.90;;;;;;5014714;28;20375;-69
2022/01/05 11:00:37;;;;;;;19.85;2.97;;;8.60;99.90;;;;;;5015376;28;20040;-70
2022/01/05 11:03:23;;;;;;;23.98;3.80;;;8.70;99.90;;;;;;5015106;28;20041;-69
2022/01/05 11:06:12;;;;;;;22.15;4.38;;;8.70;99.90;;;;;;5014843;28;20033;-69
2022/01/05 11:08:54;;;;;;;25.00;3.90;;;8.70;99.90;;;;;;5013591;28;20025;-69
2022/01/05 11:11:38;;;;;;;17.40;3.55;;;8.70;99.90;;;;;;5013360;28;20388;-68
2022/01/05 11:14:12;;;;;;;22.58;3.55;;;8.70;99.90;;;;;;5014970;28;20130;-68
2022/01/05 11:16:40;;;;;;;22.90;3.53;;;8.80;99.90;;;;;;5014637;28;20109;-67
2022/01/05 11:19:23;;;;;;;22.85;3.63;;;8.80;99.90;;;;;;5014767;28;20068;-69
2022/01/05 11:22:09;;;;;;;31.83;5.00;;;8.80;99.90;;;;;;5032738;28;20057;-69
2022/01/05 11:24:46;;;;;;;27.13;4.65;;;8.80;99.90;;;;;;5032906;28;20447;-67
2022/01/05 11:27:16;;;;;;;18.90;3.33;;;8.90;99.90;;;;;;5034267;28;20025;-70
2022/01/05 11:29:43;;;;;;;17.27;2.80;;;8.90;99.90;;;;;;5033980;28;20028;-71
2022/01/05 11:32:12;;;;;;;18.67;3.17;;;8.90;99.90;;;;;;5034122;28;20025;-70
2022/01/05 11:34:38;;;;;;;26.10;3.80;;;8.80;99.90;;;;;;5034587;28;20025;-70
2022/01/05 11:37:08;;;;;;;18.73;3.28;;;8.80;99.90;;;;;;5032369;28;20434;-70
2022/01/05 11:39:34;;;;;;;24.15;3.83;;;8.70;99.90;;;;;;5034152;28;20040;-70
2022/01/05 11:42:06;;;;;;;24.83;3.72;;;8.70;99.90;;;;;;5033748;28;20141;-68
2022/01/05 11:44:44;;;;;;;17.10;2.75;;;8.70;99.90;;;;;;5035017;28;20073;-71
2022/01/05 11:47:20;;;;;;;24.65;4.15;;;8.70;99.90;;;;;;5033722;28;20046;-71
2022/01/05 11:49:46;;;;;;;24.15;3.78;;;8.70;99.90;;;;;;5033576;28;20026;-71
2022/01/05 11:52:11;;;;;;;24.15;4.30;;;8.70;99.90;;;;;;5033632;28;20051;-71
2022/01/05 11:54:37;;;;;;;22.58;4.13;;;8.80;99.90;;;;;;5033862;28;20026;-70
2022/01/05 11:57:11;;;;;;;27.17;3.78;;;9.00;99.90;;;;;;5033721;28;20476;-68
2022/01/05 11:59:39;;;;;;;25.52;4.10;;;9.10;99.90;;;;;;5032197;28;20044;-69
2022/01/05 12:02:09;;;;;;;17.45;3.42;;;9.20;99.90;;;;;;5033425;28;20112;-68
2022/01/05 12:04:55;;;;;;;17.58;3.70;;;9.20;99.90;;;;;;5034018;28;20036;-67
2022/01/05 12:07:55;;;;;;;12.68;3.00;;;9.30;99.90;;;;;;5033165;28;20053;-69
2022/01/05 12:10:23;;;;;;;13.05;2.30;;;9.30;99.90;;;;;;5010888;28;20056;-70
2022/01/05 12:13:05;;;;;;;20.45;3.53;;;9.40;99.90;;;;;;5033576;28;20025;-69
2022/01/05 12:15:51;;;;;;;29.13;3.67;;;9.30;99.90;;;;;;5033744;28;20630;-68
2022/01/05 12:18:59;;;;;;;27.20;3.55;;;9.50;99.90;;;;;;5034378;28;20029;-68
2022/01/05 12:21:46;;;;;;;24.10;3.05;;;9.70;99.90;;;;;;5033168;28;20462;-71
2022/01/05 12:24:13;;;;;;;28.45;3.65;;;9.90;99.90;;;;;;5033985;28;20112;-71
2022/01/05 12:26:39;;;;;;;14.95;2.15;;;10.20;99.90;;;;;;5033894;28;20032;-70
2022/01/05 12:29:06;;;;;;;15.98;2.58;;;10.40;99.90;;;;;;5031673;28;20378;-71
2022/01/05 12:31:50;;;;;;;20.85;2.97;;;10.60;99.90;;;;;;5031904;28;20128;-70
2022/01/05 12:34:52;;;;;;;20.17;3.22;;;10.80;99.90;;;;;;5033388;28;20085;-69
2022/01/05 12:37:43;;;;;;;25.05;4.18;;;10.90;99.90;;;;;;5033457;28;20017;-70
2022/01/05 12:40:27;;;;;;;23.27;3.58;;;10.90;99.90;;;;;;5031663;28;20033;-70
2022/01/05 12:43:08;;;;;;;13.70;2.75;;;10.70;99.90;;;;;;5032862;28;20044;-70
2022/01/05 12:45:45;;;;;;;18.48;2.80;;;10.80;99.90;;;;;;5032470;28;20383;-70
2022/01/05 12:48:33;;;;;;;23.63;3.15;;;10.80;99.90;;;;;;5032598;28;20037;-69
2022/01/05 12:51:23;;;;;;;12.48;2.30;;;10.60;99.90;;;;;;5032632;28;20085;-71
2022/01/05 12:53:55;;;;;;;19.65;2.85;;;10.40;99.90;;;;;;5031510;28;20066;-71